Time;durP1;ratioP1;P1;durP2;ratioP2;P2;SDS_P1;SDS_P2;PMS_P1;PMS_P2;Temp;Humidity;BMP_temperature;BMP_pressure;BME280_temperature;BME280_humidity;BME280_pressure;Samples;Min_cycle;Max_cycle;Signal;HPM_P1;HPM_P2
2022/01/13 00:03:00;;;;;;;5.97;5.10;;;;;;;-9.71;77.38;101384.88;31360097;28;20048;-77
2022/01/13 00:18:09;;;;;;;5.77;5.07;;;;;;;-9.69;78.63;101382.78;31334796;28;20060;-77
2022/01/13 00:33:13;;;;;;;5.03;4.63;;;;;;;-9.84;81.78;101401.06;31339638;28;20510;-78
2022/01/13 00:48:16;;;;;;;9.43;6.20;;;;;;;-10.00;83.95;101391.47;31345124;28;20476;-76
2022/01/13 01:03:18;;;;;;;4.30;3.70;;;;;;;-10.22;80.99;101399.44;31331580;28;20392;-77
2022/01/13 01:33:28;;;;;;;5.33;4.80;;;;;;;-10.38;80.85;101403.75;31345674;28;20072;-78
2022/01/13 01:48:34;;;;;;;4.47;4.17;;;;;;;-10.37;80.46;101407.94;31350303;28;20056;-79
2022/01/13 02:03:36;;;;;;;10.13;5.23;;;;;;;-10.20;78.60;101428.88;31380408;28;20059;-78
2022/01/13 02:18:38;;;;;;;7.00;3.77;;;;;;;-10.39;81.61;101420.53;31330636;28;20063;-76
2022/01/13 02:33:41;;;;;;;2.90;2.67;;;;;;;-10.42;83.53;101441.25;31345633;28;20529;-77
2022/01/13 02:48:42;;;;;;;9.93;5.50;;;;;;;-10.60;80.77;101438.94;31307082;28;20140;-78
2022/01/13 03:03:45;;;;;;;4.57;4.27;;;;;;;-10.84;76.16;101449.66;31349102;28;20132;-78
2022/01/13 03:18:47;;;;;;;4.97;3.87;;;;;;;-11.03;75.21;101462.28;31345397;28;20072;-77
2022/01/13 03:33:51;;;;;;;2.50;2.40;;;;;;;-11.23;76.58;101472.47;31330511;28;20053;-78
2022/01/13 03:48:53;;;;;;;3.60;3.40;;;;;;;-11.44;77.99;101479.25;31337888;28;20052;-77
2022/01/13 04:03:55;;;;;;;3.70;3.50;;;;;;;-11.63;78.57;101493.63;31355566;28;20491;-77
2022/01/13 04:19:04;;;;;;;4.20;3.90;;;;;;;-11.77;78.63;101485.28;31335609;28;20059;-78
2022/01/13 04:34:07;;;;;;;3.60;3.33;;;;;;;-11.85;75.89;101501.41;31335176;28;20053;-77
2022/01/13 04:49:09;;;;;;;3.60;3.30;;;;;;;-12.01;74.06;101506.56;31344688;28;20088;-78
2022/01/13 05:04:11;;;;;;;3.47;3.27;;;;;;;-12.29;72.75;101516.03;31311407;28;20169;-77
2022/01/13 05:19:17;;;;;;;3.90;3.23;;;;;;;-12.44;72.39;101518.31;31380037;28;20060;-78
2022/01/13 05:34:19;;;;;;;4.97;3.90;;;;;;;-12.39;73.40;101523.66;31376667;28;20060;-79
2022/01/13 05:49:42;;;;;;;2.93;2.73;;;;;;;-12.34;70.97;101536.06;31409187;28;20052;-77
2022/01/13 06:04:45;;;;;;;7.37;3.70;;;;;;;-11.72;69.72;101547.41;31336816;28;20053;-78
2022/01/13 06:19:46;;;;;;;4.03;3.73;;;;;;;-9.03;60.66;101537.63;31361448;28;20049;-74
2022/01/13 06:34:50;;;;;;;7.97;4.33;;;;;;;-9.70;58.94;101556.50;31397772;28;20052;-80
2022/01/13 06:49:52;;;;;;;7.67;4.10;;;;;;;-10.40;63.86;101549.44;31396453;28;20053;-78
2022/01/13 07:04:54;;;;;;;6.87;4.03;;;;;;;-8.22;57.42;101527.47;31341834;28;20109;-78
2022/01/13 07:19:56;;;;;;;3.53;3.23;;;;;;;-7.26;54.04;101525.00;31347398;28;20801;-77
2022/01/13 07:34:58;;;;;;;4.97;3.20;;;;;;;-6.22;52.23;101543.78;31361013;28;20075;-79
2022/01/13 07:50:00;;;;;;;5.87;3.70;;;;;;;-5.09;51.44;101510.22;31358905;28;20061;-80
2022/01/13 08:05:03;;;;;;;5.90;3.67;;;;;;;-3.63;45.72;101496.22;31384467;28;20529;-80
2022/01/13 08:20:06;;;;;;;8.80;4.77;;;;;;;-4.73;47.71;101477.00;31353794;28;20049;-77
2022/01/13 08:35:10;;;;;;;9.50;3.17;;;;;;;-3.55;44.52;101455.78;31312678;28;20049;-79
2022/01/13 08:50:12;;;;;;;4.77;3.30;;;;;;;-2.81;43.96;101437.94;31369130;28;20064;-77
2022/01/13 09:05:16;;;;;;;4.90;4.47;;;;;;;-2.76;43.61;101424.56;31434151;28;20062;-78
2022/01/13 09:20:18;;;;;;;4.63;4.17;;;;;;;-1.81;41.87;101399.59;31367043;28;20494;-77
2022/01/13 09:35:21;;;;;;;8.73;3.97;;;;;;;-1.74;42.76;101383.97;31377890;28;20052;-78
2022/01/13 09:50:23;;;;;;;5.50;3.80;;;;;;;-1.93;43.29;101353.31;31373332;28;20088;-78
2022/01/13 10:05:25;;;;;;;11.70;3.50;;;;;;;-1.23;43.11;101324.06;31362997;28;20144;-79
2022/01/13 10:20:27;;;;;;;6.57;4.10;;;;;;;-0.94;42.25;101320.81;31355991;28;20092;-77
2022/01/13 10:35:34;;;;;;;8.47;4.40;;;;;;;-0.72;42.13;101293.25;31380690;28;20072;-78
2022/01/13 10:50:40;;;;;;;;;;;;;;;-0.73;41.85;101305.03;31331601;28;20139;-78
2022/01/13 11:06:06;;;;;;;12.80;5.23;;;;;;;-0.87;43.49;101270.50;31367115;28;19952;-78
2022/01/13 11:21:08;;;;;;;10.33;5.00;;;;;;;-0.60;42.89;101237.41;31399338;28;20063;-79
2022/01/13 11:36:12;;;;;;;6.50;4.37;;;;;;;-0.96;45.22;101232.41;31348834;28;20136;-77
2022/01/13 11:51:19;;;;;;;6.07;4.17;;;;;;;-0.66;45.03;101233.31;31376585;28;20087;-79
2022/01/13 12:06:51;;;;;;;7.00;4.07;;;;;;;-0.59;45.04;101222.97;31365661;28;20056;-78
2022/01/13 12:22:02;;;;;;;7.07;4.47;;;;;;;0.92;42.09;101210.72;31347254;28;20068;-80
2022/01/13 12:37:13;;;;;;;8.50;4.67;;;;;;;0.92;41.91;101200.03;31364449;28;20136;-79
2022/01/13 12:52:19;;;;;;;8.80;4.43;;;;;;;-0.38;44.04;101178.53;31288070;28;20083;-80
2022/01/13 13:07:21;;;;;;;9.07;5.30;;;;;;;-3.87;53.39;101168.13;31337903;28;20139;-81
2022/01/13 13:22:23;;;;;;;8.67;4.30;;;;;;;-4.93;57.62;101164.66;31370832;28;20644;-79
2022/01/13 13:37:25;;;;;;;7.90;4.37;;;;;;;-5.26;59.74;101142.66;31330746;28;20135;-79
2022/01/13 13:52:27;;;;;;;5.40;4.27;;;;;;;-5.58;60.24;101140.72;31410960;28;20069;-79
2022/01/13 14:07:30;;;;;;;5.03;3.63;;;;;;;-5.77;61.38;101111.59;31355056;28;20057;-79
2022/01/13 14:22:32;;;;;;;7.67;4.87;;;;;;;-5.71;62.73;101104.41;31424623;28;20144;-77
2022/01/13 14:37:34;;;;;;;13.07;6.23;;;;;;;-5.91;63.69;101073.75;31383256;28;20084;-78
2022/01/13 14:52:36;;;;;;;15.90;7.23;;;;;;;-6.00;63.74;101096.59;31375134;28;20128;-78
2022/01/13 15:07:38;;;;;;;14.37;5.87;;;;;;;-5.87;63.97;101112.50;31340956;28;20506;-77
2022/01/13 15:22:40;;;;;;;19.90;6.20;;;;;;;-5.98;63.17;101105.81;31345702;28;20091;-79
2022/01/13 15:37:43;;;;;;;11.43;6.93;;;;;;;-5.95;64.26;101044.44;31386661;28;20127;-77
2022/01/13 15:52:46;;;;;;;20.87;9.00;;;;;;;-6.07;65.11;101057.28;31368719;28;20053;-79
2022/01/13 16:07:48;;;;;;;17.27;6.97;;;;;;;-5.97;66.60;101067.72;31337647;28;20095;-77
2022/01/13 16:22:50;;;;;;;9.40;5.27;;;;;;;-6.08;67.63;101031.91;31358026;28;20079;-80
2022/01/13 16:37:54;;;;;;;6.27;4.33;;;;;;;-6.16;67.61;100990.28;31326117;28;20084;-79
2022/01/13 16:53:00;;;;;;;7.67;5.37;;;;;;;-6.09;68.53;100966.91;31378059;28;20048;-79
2022/01/13 17:08:03;;;;;;;12.70;5.25;;;;;;;-6.03;69.57;100963.13;31341945;28;20061;-78
2022/01/13 17:23:05;;;;;;;12.80;6.00;;;;;;;-5.99;70.51;100935.03;31393238;28;20050;-78
2022/01/13 17:38:07;;;;;;;13.47;7.30;;;;;;;-5.85;70.63;100935.84;31427746;28;20057;-78
2022/01/13 17:53:09;;;;;;;9.73;5.57;;;;;;;-5.70;73.34;100910.25;31377444;28;20102;-77
2022/01/13 18:08:11;;;;;;;7.80;5.33;;;;;;;-5.76;76.81;100858.50;31360552;28;20060;-80
2022/01/13 18:23:14;;;;;;;10.93;6.23;;;;;;;-5.51;77.39;100876.56;31376327;28;20057;-81
2022/01/13 18:38:16;;;;;;;11.07;6.87;;;;;;;-5.37;77.56;100898.53;31386911;28;20569;-79
2022/01/13 18:53:19;;;;;;;11.03;7.30;;;;;;;-5.25;78.40;100861.81;31368808;28;20085;-81
2022/01/13 19:08:21;;;;;;;10.50;6.13;;;;;;;-5.11;80.66;100868.94;31321915;28;20076;-80
2022/01/13 19:23:23;;;;;;;9.43;5.83;;;;;;;-5.20;87.79;100851.13;31389934;28;20586;-83
2022/01/13 19:38:25;;;;;;;7.80;4.70;;;;;;;-5.35;92.36;100822.28;31364048;28;20071;-82
2022/01/13 19:53:29;;;;;;;13.43;7.13;;;;;;;-5.36;97.14;100799.53;31327639;28;20478;-81
2022/01/13 20:08:32;;;;;;;9.83;4.90;;;;;;;-5.28;100.00;100780.34;31335839;28;20456;-81
2022/01/13 20:23:38;;;;;;;9.07;4.17;;;;;;;-5.23;100.00;100747.69;31335647;28;20049;-79
2022/01/13 20:38:40;;;;;;;11.63;7.63;;;;;;;-5.31;100.00;100706.03;31337931;28;20061;-75
2022/01/13 20:53:45;;;;;;;8.47;5.80;;;;;;;-5.05;100.00;100687.72;31365755;28;20118;-78
2022/01/13 21:08:48;;;;;;;13.07;6.40;;;;;;;-4.98;100.00;100682.81;31330983;28;20143;-79
2022/01/13 21:23:51;;;;;;;16.33;7.67;;;;;;;-4.87;100.00;100639.09;31348196;28;20059;-77
2022/01/13 21:38:53;;;;;;;15.27;6.40;;;;;;;-4.68;100.00;100629.09;31321942;28;20079;-75
2022/01/13 21:53:55;;;;;;;16.80;8.60;;;;;;;-4.60;100.00;100585.19;31349030;28;20417;-76
2022/01/13 22:24:00;;;;;;;16.70;9.23;;;;;;;-4.25;100.00;100554.31;31394346;28;20495;-77
2022/01/13 22:39:05;;;;;;;20.43;10.80;;;;;;;-4.20;100.00;100517.03;31381748;28;20434;-76
2022/01/13 22:54:20;;;;;;;18.63;8.50;;;;;;;-4.22;100.00;100460.88;31335384;28;20147;-75
2022/01/13 23:09:22;;;;;;;20.93;10.80;;;;;;;-4.30;100.00;100411.31;31383306;28;20393;-77
2022/01/13 23:24:24;;;;;;;18.63;10.50;;;;;;;-4.30;100.00;100400.72;31380081;28;20053;-74
2022/01/13 23:39:26;;;;;;;24.20;10.13;;;;;;;-4.29;100.00;100365.16;31327366;28;20670;-75
2022/01/13 23:54:28;;;;;;;24.07;10.93;;;;;;;-4.13;100.00;100374.19;31229352;28;20049;-76
